Time;durP1;ratioP1;P1;durP2;ratioP2;P2;SDS_P1;SDS_P2;PMS_P1;PMS_P2;Temp;Humidity;BMP_temperature;BMP_pressure;BME280_temperature;BME280_humidity;BME280_pressure;Samples;Min_cycle;Max_cycle;Signal;HPM_P1;HPM_P2
2022/12/19 00:01:48;;;;;;;;;24.00;23.00;;;;;6.13;74.22;101426.94;5016289;28;45432;-70
2022/12/19 00:04:14;;;;;;;;;25.33;24.33;;;;;6.25;74.89;101434.94;5015411;28;45719;-69
2022/12/19 00:06:40;;;;;;;;;30.67;24.33;;;;;6.26;74.58;101451.63;5013888;28;46289;-70
2022/12/19 00:09:06;;;;;;;;;26.00;22.00;;;;;5.33;74.51;101286.03;4986441;28;46098;-71
2022/12/19 00:11:32;;;;;;;;;27.67;24.67;;;;;5.59;74.42;101324.78;5007919;28;45562;-72
2022/12/19 00:13:58;;;;;;;;;26.67;24.67;;;;;6.28;74.47;101431.25;4999328;28;45583;-70
2022/12/19 00:16:26;;;;;;;;;27.67;24.00;;;;;4.37;74.01;101112.94;4977868;28;47340;-71
2022/12/19 00:18:55;;;;;;;;;27.67;25.67;;;;;6.27;74.67;101413.69;4992779;28;45569;-71
2022/12/19 00:21:23;;;;;;;;;28.33;25.00;;;;;6.27;74.30;101419.84;5007019;28;45569;-70
2022/12/19 00:23:49;;;;;;;;;26.33;22.67;;;;;6.07;74.05;101375.41;5001917;28;45684;-70
2022/12/19 00:26:35;;;;;;;;;25.67;23.67;;;;;6.34;74.69;101421.13;4998195;28;46396;-70
2022/12/19 00:29:04;;;;;;;;;22.67;20.00;;;;;5.73;73.73;101308.94;5001340;28;45195;-71
2022/12/19 00:31:32;;;;;;;;;28.00;21.67;;;;;6.42;74.28;101422.44;4996768;28;45435;-68
2022/12/19 00:33:58;;;;;;;;;24.33;24.33;;;;;6.11;73.74;101363.69;5003465;28;45281;-68
2022/12/19 00:36:26;;;;;;;;;27.67;25.67;;;;;4.75;73.66;101137.72;5000896;28;45272;-70
2022/12/19 00:38:53;;;;;;;;;25.67;24.00;;;;;6.45;74.21;101422.22;5014047;28;45435;-71
2022/12/19 00:41:29;;;;;;;;;27.00;24.00;;;;;6.50;74.08;101414.84;4990830;28;45454;-70
2022/12/19 00:44:03;;;;;;;;;27.33;24.33;;;;;6.29;73.90;101388.88;4993795;28;45633;-70
2022/12/19 00:46:30;;;;;;;;;27.33;26.00;;;;;6.51;73.42;101408.59;5011112;28;45609;-70
2022/12/19 00:48:55;;;;;;;;;23.67;23.67;;;;;6.06;73.97;101315.63;5006292;28;45278;-69
2022/12/19 00:51:25;;;;;;;;;27.00;25.00;;;;;5.78;73.90;101275.16;5016912;28;45243;-69
2022/12/19 00:53:52;;;;;;;;;26.67;23.33;;;;;5.19;73.32;101181.47;5019747;28;45554;-70
2022/12/19 00:56:20;;;;;;;;;25.00;20.67;;;;;6.56;74.14;101388.84;5019459;28;47163;-72
2022/12/19 00:58:46;;;;;;;;;22.67;20.00;;;;;5.90;73.65;101272.72;4998436;28;45349;-69
2022/12/19 01:01:15;;;;;;;;;25.00;22.00;;;;;5.70;73.77;101244.97;5006526;28;45463;-69
2022/12/19 01:03:41;;;;;;;;;20.33;18.67;;;;;6.30;73.69;101350.13;5008524;28;45300;-71
2022/12/19 01:06:07;;;;;;;;;26.00;19.67;;;;;6.60;73.89;101392.13;5005505;28;46551;-69
2022/12/19 01:08:33;;;;;;;;;21.33;19.00;;;;;6.18;74.03;101306.88;5001944;28;45424;-70
2022/12/19 01:10:58;;;;;;;;;27.33;23.00;;;;;6.62;73.53;101382.31;4999667;28;45428;-71
2022/12/19 01:13:26;;;;;;;;;22.33;22.33;;;;;6.55;73.15;101357.25;5015514;28;45290;-69
2022/12/19 01:15:52;;;;;;;;;23.00;21.67;;;;;6.55;73.85;101391.59;5007665;28;46034;-70
2022/12/19 01:18:17;;;;;;;;;22.33;19.00;;;;;6.58;73.44;101375.53;5005362;28;45284;-69
2022/12/19 01:20:47;;;;;;;;;24.33;21.67;;;;;6.67;73.55;101385.50;5018441;28;45333;-70
2022/12/19 01:23:14;;;;;;;;;22.00;22.00;;;;;6.61;74.04;101370.91;5010760;28;45346;-72
2022/12/19 01:25:40;;;;;;;;;22.33;20.00;;;;;6.57;73.67;101365.91;4983874;28;47808;-70
2022/12/19 01:28:06;;;;;;;;;25.67;21.33;;;;;6.73;73.38;101382.44;5011484;28;45388;-70
2022/12/19 01:30:33;;;;;;;;;26.67;20.00;;;;;6.69;73.08;101367.75;5009539;28;45542;-68
2022/12/19 01:32:59;;;;;;;;;27.67;23.33;;;;;6.81;73.20;101403.91;5015923;28;45319;-69
2022/12/19 01:35:24;;;;;;;;;22.67;20.67;;;;;6.76;73.51;101379.56;4995375;28;48187;-69
2022/12/19 01:37:51;;;;;;;;;23.33;18.67;;;;;6.87;73.33;101397.38;5009205;28;45605;-68
2022/12/19 01:40:18;;;;;;;;;16.67;16.67;;;;;6.86;72.88;101391.22;5012314;28;45496;-69
2022/12/19 01:42:43;;;;;;;;;23.00;22.00;;;;;6.77;72.65;101365.41;5018715;28;45446;-71
2022/12/19 01:45:09;;;;;;;;;22.67;22.00;;;;;6.90;72.88;101382.13;4999078;28;45616;-72
2022/12/19 01:47:44;;;;;;;;;18.33;18.00;;;;;5.61;73.16;101171.72;4987467;28;45483;-69
2022/12/19 01:50:16;;;;;;;;;28.67;20.33;;;;;6.97;72.69;101375.47;5006893;28;46172;-70
2022/12/19 01:52:42;;;;;;;;;21.67;18.67;;;;;7.00;72.88;101382.34;4999169;28;45361;-69
2022/12/19 01:55:10;;;;;;;;;21.00;20.00;;;;;6.61;72.72;101311.94;4998698;28;45416;-70
2022/12/19 01:57:38;;;;;;;;;25.33;24.00;;;;;6.14;72.01;101220.06;4998771;28;45424;-69
2022/12/19 02:00:05;;;;;;;;;21.67;20.00;;;;;6.97;72.93;101356.97;5006954;28;45226;-70
2022/12/19 02:02:34;;;;;;;;;16.67;16.67;;;;;6.28;72.35;101239.31;4998923;28;45250;-69
2022/12/19 02:05:00;;;;;;;;;23.67;20.00;;;;;6.56;72.58;101283.16;4999199;28;45526;-71
2022/12/19 02:07:27;;;;;;;;;19.33;15.33;;;;;6.92;72.74;101342.38;5013985;28;45444;-69
2022/12/19 02:09:56;;;;;;;;;21.00;16.67;;;;;7.12;72.32;101392.09;4998737;28;45495;-69
2022/12/19 02:12:26;;;;;;;;;15.67;15.67;;;;;6.24;72.44;101231.72;4997624;28;45522;-71
2022/12/19 02:14:53;;;;;;;;;21.67;18.00;;;;;7.17;72.78;101399.69;5013685;28;46413;-71
2022/12/19 02:17:37;;;;;;;;;14.67;14.67;;;;;7.23;72.88;101394.84;4999241;28;45204;-70
2022/12/19 02:20:33;;;;;;;;;20.67;20.00;;;;;7.24;72.78;101385.97;4998810;28;45482;-69
2022/12/19 02:23:32;;;;;;;;;22.00;18.00;;;;;7.26;72.73;101384.03;5006707;28;45552;-71
2022/12/19 02:26:25;;;;;;;;;17.67;17.67;;;;;7.10;72.90;101348.19;4984833;28;46751;-71
2022/12/19 02:29:32;;;;;;;;;18.33;18.00;;;;;7.15;72.81;101360.13;4999178;28;45461;-69
2022/12/19 02:32:21;;;;;;;;;19.00;18.00;;;;;7.11;72.39;101363.09;4998616;28;45294;-69
2022/12/19 02:35:08;;;;;;;;;16.67;15.00;;;;;7.27;73.07;101379.59;5006718;28;45435;-70
2022/12/19 02:37:42;;;;;;;;;20.00;18.00;;;;;6.70;72.65;101300.72;4999710;28;49616;-70
2022/12/19 02:40:28;;;;;;;;;20.00;14.00;;;;;7.19;72.97;101372.19;5009966;28;45804;-71
2022/12/19 02:42:58;;;;;;;;;20.00;18.33;;;;;7.11;73.32;101363.09;5002359;28;45463;-70
2022/12/19 02:45:29;;;;;;;;;18.33;17.67;;;;;7.06;73.18;101354.66;5007926;28;45487;-70
2022/12/19 02:47:56;;;;;;;;;18.67;16.33;;;;;6.91;73.77;101330.13;4988698;28;47970;-70
2022/12/19 02:50:21;;;;;;;;;17.67;16.00;;;;;7.29;73.35;101389.13;4998689;28;45261;-70
2022/12/19 02:52:48;;;;;;;;;20.00;17.00;;;;;7.34;73.76;101386.13;5005686;28;45365;-71
2022/12/19 02:55:19;;;;;;;;;18.00;15.33;;;;;7.14;73.80;101349.66;5006277;28;45458;-68
2022/12/19 02:57:59;;;;;;;;;18.67;17.33;;;;;7.39;73.33;101384.00;5016537;28;45844;-71
2022/12/19 03:00:26;;;;;;;;;18.33;14.00;;;;;6.62;73.58;101256.34;5016381;28;45353;-71
2022/12/19 03:03:13;;;;;;;;;18.00;14.67;;;;;7.37;73.78;101372.69;4998142;28;45290;-70
2022/12/19 03:05:41;;;;;;;;;20.00;19.00;;;;;7.39;73.97;101369.94;4999896;28;45205;-70
2022/12/19 03:08:27;;;;;;;;;19.00;16.00;;;;;7.39;74.17;101376.06;5008897;28;45797;-71
2022/12/19 03:11:03;;;;;;;;;21.33;19.67;;;;;7.40;74.02;101372.47;4996419;28;45465;-69
2022/12/19 03:13:30;;;;;;;;;21.33;16.33;;;;;6.89;73.95;101290.56;4987832;28;45570;-70
2022/12/19 03:15:58;;;;;;;;;16.00;14.67;;;;;6.79;74.12;101272.81;4991332;28;45423;-70
2022/12/19 03:18:24;;;;;;;;;18.67;14.67;;;;;7.43;73.95;101369.63;4996087;28;48605;-71
2022/12/19 03:21:06;;;;;;;;;15.00;15.00;;;;;7.39;74.27;101362.84;4997855;28;45375;-69
2022/12/19 03:23:32;;;;;;;;;20.00;17.00;;;;;7.44;73.96;101381.91;4998081;28;45274;-71
2022/12/19 03:26:05;;;;;;;;;18.00;16.00;;;;;7.47;74.15;101386.97;5001195;28;45611;-71
2022/12/19 03:28:41;;;;;;;;;16.00;15.00;;;;;7.37;74.13;101350.69;5001093;28;46572;-69
2022/12/19 03:31:08;;;;;;;;;16.67;16.67;;;;;7.51;73.92;101388.44;4997472;28;45523;-71
2022/12/19 03:33:38;;;;;;;;;16.33;15.00;;;;;6.96;73.86;101283.91;5005707;28;45554;-70
2022/12/19 03:36:07;;;;;;;;;17.67;16.00;;;;;7.28;73.88;101341.63;4997524;28;45420;-69
2022/12/19 03:38:36;;;;;;;;;16.00;15.00;;;;;7.56;73.96;101377.53;5003884;28;45651;-72
2022/12/19 03:41:05;;;;;;;;;15.00;15.00;;;;;6.82;73.91;101244.41;5016594;28;45331;-70
2022/12/19 03:43:32;;;;;;;;;17.00;17.00;;;;;6.71;73.86;101226.63;5002001;28;45718;-70
2022/12/19 03:46:08;;;;;;;;;16.33;14.67;;;;;6.99;74.10;101283.69;5015528;28;45217;-71
2022/12/19 03:48:46;;;;;;;;;17.33;15.00;;;;;7.54;73.72;101356.47;5009932;28;46318;-70
2022/12/19 03:51:14;;;;;;;;;18.00;15.00;;;;;7.58;74.08;101367.69;5000666;28;45377;-71
2022/12/19 03:53:59;;;;;;;;;18.67;15.33;;;;;7.59;74.20;101364.94;5008523;28;45362;-71
2022/12/19 03:56:39;;;;;;;;;13.33;12.33;;;;;7.57;74.21;101355.41;4984464;28;45626;-69
2022/12/19 03:59:33;;;;;;;;;16.33;15.00;;;;;7.59;73.69;101358.78;4999745;28;46696;-70
2022/12/19 04:02:00;;;;;;;;;14.67;14.67;;;;;7.60;74.01;101371.91;5007295;28;45344;-69
2022/12/19 04:04:27;;;;;;;;;21.67;16.00;;;;;7.57;74.34;101352.75;5009827;28;45732;-71
2022/12/19 04:06:54;;;;;;;;;13.33;12.67;;;;;7.63;73.66;101371.72;4990706;28;45574;-70
2022/12/19 04:09:22;;;;;;;;;17.33;14.00;;;;;7.66;73.94;101385.69;5004760;28;46543;-70
2022/12/19 04:11:53;;;;;;;;;13.00;13.00;;;;;7.55;74.05;101355.53;5004804;28;45491;-70
2022/12/19 04:14:29;;;;;;;;;14.67;14.00;;;;;7.67;73.65;101379.44;4996692;28;45525;-69
2022/12/19 04:17:03;;;;;;;;;19.33;15.67;;;;;7.71;73.70;101375.59;4997055;28;45515;-72
2022/12/19 04:19:42;;;;;;;;;19.00;16.00;;;;;7.73;73.62;101371.88;4996979;28;45503;-70
2022/12/19 04:22:24;;;;;;;;;17.67;14.33;;;;;6.67;73.54;101196.09;5003078;28;45493;-72
2022/12/19 04:24:52;;;;;;;;;13.67;13.00;;;;;7.73;73.54;101377.19;4989216;28;45324;-70
2022/12/19 04:27:20;;;;;;;;;17.67;16.00;;;;;7.54;73.78;101367.06;4996969;28;45374;-71
2022/12/19 04:29:50;;;;;;;;;16.00;13.67;;;;;7.77;73.84;101377.81;4996667;28;46890;-70
2022/12/19 04:32:16;;;;;;;;;16.67;15.67;;;;;7.40;73.92;101321.38;4996499;28;45438;-70
2022/12/19 04:34:41;;;;;;;;;15.00;13.00;;;;;6.94;73.30;101235.59;5009419;28;45476;-69
2022/12/19 04:37:06;;;;;;;;;14.00;14.00;;;;;6.83;73.80;101214.38;5015751;28;45477;-71
2022/12/19 04:39:32;;;;;;;;;14.00;13.67;;;;;7.71;73.78;101362.38;5012547;28;45411;-72
2022/12/19 04:41:57;;;;;;;;;15.00;12.33;;;;;7.85;73.91;101376.31;5004302;28;45243;-70
2022/12/19 04:44:23;;;;;;;;;14.00;13.00;;;;;7.85;74.05;101381.59;4996659;28;45373;-70
2022/12/19 04:46:48;;;;;;;;;15.00;12.67;;;;;7.59;73.81;101325.22;5001473;28;45226;-71
2022/12/19 04:49:14;;;;;;;;;13.00;12.33;;;;;7.54;73.72;101319.44;4999502;28;45729;-74
2022/12/19 04:51:39;;;;;;;;;13.33;13.33;;;;;7.57;73.40;101319.22;5004346;28;45495;-69
2022/12/19 04:54:05;;;;;;;;;14.00;14.00;;;;;7.90;73.79;101379.47;5002952;28;45599;-71
2022/12/19 04:56:30;;;;;;;;;17.00;15.00;;;;;7.93;74.14;101379.22;4999925;28;45467;-72
2022/12/19 04:58:57;;;;;;;;;13.33;12.67;;;;;7.93;73.64;101379.22;5008244;28;46391;-71
2022/12/19 05:01:23;;;;;;;;;12.33;11.33;;;;;7.97;73.74;101374.56;4999251;28;45254;-69
2022/12/19 05:03:48;;;;;;;;;13.00;11.00;;;;;7.97;73.98;101368.41;4996713;28;45376;-69
2022/12/19 05:06:14;;;;;;;;;14.33;13.00;;;;;7.96;73.62;101370.22;4996624;28;45425;-71
2022/12/19 05:08:41;;;;;;;;;11.67;10.33;;;;;7.93;73.36;101362.50;4996082;28;46318;-72
2022/12/19 05:11:12;;;;;;;;;12.33;12.33;;;;;7.97;73.44;101361.31;4997128;28;45520;-70
2022/12/19 05:13:38;;;;;;;;;11.00;11.00;;;;;7.74;73.70;101309.22;4996001;28;45444;-71
2022/12/19 05:16:06;;;;;;;;;14.33;13.33;;;;;8.05;73.58;101361.63;5000976;28;45570;-70
2022/12/19 05:18:32;;;;;;;;;13.67;12.00;;;;;8.06;74.06;101378.34;5000303;28;45930;-70
2022/12/19 05:20:57;;;;;;;;;9.33;8.67;;;;;7.86;73.88;101333.00;5012477;28;45397;-70
2022/12/19 05:23:23;;;;;;;;;13.33;13.33;;;;;8.08;73.15;101366.69;5014678;28;45296;-71
2022/12/19 05:25:49;;;;;;;;;14.00;10.33;;;;;8.09;73.73;101373.66;5016820;28;45309;-71
2022/12/19 05:28:15;;;;;;;;;15.67;13.67;;;;;7.79;73.25;101349.41;4999345;28;45560;-71
2022/12/19 05:30:41;;;;;;;;;6.00;6.00;;;;;7.85;73.41;101327.81;4995007;28;45471;-71
2022/12/19 05:33:06;;;;;;;;;11.67;10.67;;;;;8.17;73.38;101383.69;5003002;28;45221;-71
2022/12/19 05:35:32;;;;;;;;;13.67;11.67;;;;;7.99;73.61;101340.88;5019687;28;45507;-72
2022/12/19 05:37:58;;;;;;;;;12.67;12.00;;;;;7.72;73.12;101292.59;5002163;28;45519;-70
2022/12/19 05:40:23;;;;;;;;;11.67;11.00;;;;;8.16;73.32;101364.31;5000124;28;52459;-70
2022/12/19 05:42:48;;;;;;;;;9.67;8.67;;;;;8.20;73.06;101376.34;4992343;28;45355;-71
2022/12/19 05:45:14;;;;;;;;;12.33;12.33;;;;;8.01;73.21;101338.09;5019067;28;45538;-70
2022/12/19 05:47:40;;;;;;;;;11.67;11.67;;;;;8.16;73.35;101368.75;5009920;28;46346;-70
2022/12/19 05:50:06;;;;;;;;;13.67;13.67;;;;;7.55;73.45;101254.97;5015328;28;45324;-70
2022/12/19 05:52:31;;;;;;;;;13.00;11.67;;;;;8.23;73.78;101362.91;4998895;28;45340;-70
2022/12/19 05:54:56;;;;;;;;;13.00;12.33;;;;;8.23;73.49;101368.22;5015228;28;45484;-71
2022/12/19 05:57:23;;;;;;;;;14.33;13.33;;;;;8.05;73.35;101337.78;5007441;28;45701;-70
2022/12/19 05:59:48;;;;;;;;;15.67;14.00;;;;;8.27;73.57;101370.63;5007515;28;45447;-69
2022/12/19 06:02:13;;;;;;;;;14.67;14.33;;;;;8.19;73.58;101365.88;4988912;28;45275;-70
2022/12/19 06:04:39;;;;;;;;;14.33;14.33;;;;;8.24;73.70;101385.78;4996069;28;45576;-70
2022/12/19 06:07:04;;;;;;;;;12.67;10.67;;;;;8.19;73.98;101361.41;5001604;28;45313;-70
2022/12/19 06:09:29;;;;;;;;;17.67;12.00;;;;;8.00;73.90;101347.00;5000542;28;45562;-72
2022/12/19 06:11:57;;;;;;;;;17.00;17.00;;;;;8.23;73.76;101373.50;5002175;28;45543;-71
2022/12/19 06:14:22;;;;;;;;;16.00;15.33;;;;;8.14;73.75;101360.91;4997879;28;45399;-69
2022/12/19 06:16:48;;;;;;;;;15.00;14.00;;;;;8.14;73.73;101355.63;5005641;28;45586;-71
2022/12/19 06:19:14;;;;;;;;;13.33;13.33;;;;;7.31;73.69;101214.44;4997848;28;45544;-70
2022/12/19 06:21:39;;;;;;;;;16.00;16.00;;;;;7.32;73.63;101208.19;5012135;28;45344;-72
2022/12/19 06:24:05;;;;;;;;;16.00;14.33;;;;;8.04;73.49;101338.75;5009268;28;45633;-71
2022/12/19 06:26:30;;;;;;;;;14.67;14.67;;;;;8.17;73.45;101355.41;5002423;28;46381;-70
2022/12/19 06:28:56;;;;;;;;;14.33;13.67;;;;;8.13;73.81;101347.78;5010792;28;45605;-71
2022/12/19 06:31:23;;;;;;;;;16.00;14.67;;;;;8.07;73.83;101327.06;5006131;28;45400;-71
2022/12/19 06:33:48;;;;;;;;;17.33;16.00;;;;;7.88;73.90;101317.84;5004362;28;45518;-70
2022/12/19 06:36:19;;;;;;;;;15.67;14.00;;;;;7.48;73.84;101221.16;5006425;28;46445;-71
2022/12/19 06:38:44;;;;;;;;;15.33;15.00;;;;;8.36;73.75;101369.97;4998482;28;45430;-71
2022/12/19 06:44:02;;;;;;;;;16.00;14.33;;;;;8.39;73.23;101365.28;5006411;28;45384;-71
2022/12/19 06:46:29;;;;;;;;;17.67;15.00;;;;;8.17;73.64;101326.25;4997986;28;45732;-72
2022/12/19 06:48:54;;;;;;;;;15.00;15.00;;;;;8.19;73.55;101329.63;4997931;28;45468;-69
2022/12/19 06:51:20;;;;;;;;;12.67;12.67;;;;;8.42;73.57;101366.88;4996802;28;45372;-70
2022/12/19 06:53:46;;;;;;;;;14.33;14.00;;;;;8.07;73.82;101317.31;4998296;28;45556;-71
2022/12/19 06:56:14;;;;;;;;;14.67;13.00;;;;;7.82;73.43;101261.88;4997727;28;45792;-72
2022/12/19 06:58:39;;;;;;;;;12.67;12.67;;;;;8.40;73.61;101356.34;4997712;28;45219;-71
2022/12/19 07:01:05;;;;;;;;;14.67;14.67;;;;;8.36;73.40;101343.47;5004156;28;45436;-70
2022/12/19 07:03:38;;;;;;;;;16.67;13.00;;;;;8.35;73.59;101353.22;5007809;28;45272;-71
2022/12/19 07:06:04;;;;;;;;;15.00;15.00;;;;;8.45;73.58;101353.38;5005720;28;45671;-68
2022/12/19 07:08:30;;;;;;;;;15.00;13.00;;;;;8.42;73.53;101366.88;4988798;28;45381;-69
2022/12/19 07:10:56;;;;;;;;;16.33;15.67;;;;;8.38;73.61;101362.75;5017258;28;45472;-71
2022/12/19 07:13:22;;;;;;;;;13.00;11.00;;;;;8.47;73.72;101362.06;5009826;28;45614;-70
2022/12/19 07:15:48;;;;;;;;;18.00;16.00;;;;;8.13;73.52;101300.97;5008022;28;45449;-71
2022/12/19 07:18:14;;;;;;;;;20.33;16.00;;;;;8.30;73.61;101338.59;5005422;28;46216;-70
2022/12/19 07:20:41;;;;;;;;;17.00;14.00;;;;;8.47;73.74;101367.38;4982908;28;45400;-69
2022/12/19 07:23:08;;;;;;;;;16.67;16.67;;;;;8.47;73.25;101364.72;4977093;28;45456;-72
2022/12/19 07:25:34;;;;;;;;;15.67;14.33;;;;;7.93;73.53;101283.06;4977072;28;45569;-73
2022/12/19 07:27:59;;;;;;;;;15.00;14.00;;;;;8.42;73.44;101366.88;4994594;28;45591;-71
2022/12/19 07:30:25;;;;;;;;;10.33;10.33;;;;;7.57;73.03;101229.25;4988996;28;45451;-71
2022/12/19 07:32:51;;;;;;;;;14.67;14.67;;;;;8.48;73.10;101375.19;4988948;28;45267;-70
2022/12/19 07:35:16;;;;;;;;;13.33;12.33;;;;;8.26;73.45;101330.03;4984198;28;46354;-72
2022/12/19 07:37:42;;;;;;;;;12.33;11.33;;;;;8.22;73.52;101336.53;4984753;28;45691;-70
2022/12/19 07:40:08;;;;;;;;;13.00;12.00;;;;;8.00;73.34;101307.28;4977853;28;45164;-72
2022/12/19 07:42:34;;;;;;;;;16.67;14.00;;;;;8.29;73.26;101351.00;4999625;28;45441;-71
2022/12/19 07:45:00;;;;;;;;;17.33;14.67;;;;;8.34;73.65;101355.97;4994080;28;46518;-71
2022/12/19 07:47:26;;;;;;;;;14.67;12.00;;;;;7.70;73.50;101250.38;4977675;28;45380;-70
2022/12/19 07:49:52;;;;;;;;;13.67;13.33;;;;;8.46;73.67;101373.63;4993787;28;45400;-72
2022/12/19 07:52:20;;;;;;;;;12.00;10.67;;;;;8.45;73.18;101371.94;4989222;28;45415;-70
2022/12/19 07:54:45;;;;;;;;;13.33;12.67;;;;;8.28;73.50;101348.47;4988774;28;46291;-70
2022/12/19 07:57:11;;;;;;;;;13.00;9.00;;;;;8.12;73.26;101331.06;4995936;28;45257;-71
2022/12/19 07:59:36;;;;;;;;;12.33;10.67;;;;;8.47;73.43;101394.72;4988657;28;45231;-72
2022/12/19 08:02:01;;;;;;;;;12.33;12.33;;;;;8.29;73.20;101371.34;4987135;28;45447;-71
2022/12/19 08:04:27;;;;;;;;;12.00;10.33;;;;;8.39;73.13;101393.56;4977573;28;45534;-71
2022/12/19 08:06:52;;;;;;;;;18.67;14.67;;;;;8.53;72.80;101414.59;4986088;28;45428;-71
2022/12/19 08:09:17;;;;;;;;;14.33;13.00;;;;;8.36;72.78;101369.97;4975704;28;46380;-72
2022/12/19 08:11:43;;;;;;;;;13.67;13.67;;;;;8.37;73.12;101382.25;4992208;28;45557;-70
2022/12/19 08:14:08;;;;;;;;;16.67;15.67;;;;;8.57;72.58;101405.44;4986404;28;45526;-72
2022/12/19 08:16:35;;;;;;;;;12.00;10.33;;;;;8.09;72.48;101326.00;4989570;28;45596;-71
2022/12/19 08:19:01;;;;;;;;;13.67;13.00;;;;;8.53;72.56;101385.44;5002099;28;45439;-73
2022/12/19 08:21:26;;;;;;;;;14.00;10.67;;;;;8.65;72.41;101394.28;5005131;28;45508;-72
2022/12/19 08:23:51;;;;;;;;;13.00;10.00;;;;;8.63;72.54;101402.38;5002851;28;46398;-73
2022/12/19 08:26:23;;;;;;;;;14.00;13.00;;;;;8.19;72.29;101320.84;4988204;28;45513;-71
2022/12/19 08:28:53;;;;;;;;;12.33;9.67;;;;;8.67;72.52;101393.22;4997255;28;45412;-72
2022/12/19 08:31:19;;;;;;;;;12.67;11.00;;;;;7.90;72.21;101272.72;5005145;28;45223;-73
2022/12/19 08:33:46;;;;;;;;;12.00;12.00;;;;;7.90;71.74;101276.22;5004573;28;46336;-73
2022/12/19 08:36:14;;;;;;;;;14.00;12.00;;;;;8.73;71.99;101413.94;4996254;28;45280;-71
2022/12/19 08:38:40;;;;;;;;;14.67;13.33;;;;;8.68;72.03;101386.09;5008480;28;45275;-71
2022/12/19 08:41:06;;;;;;;;;9.00;8.33;;;;;8.78;71.72;101393.22;5015829;28;45387;-72
2022/12/19 08:43:32;;;;;;;;;14.00;11.33;;;;;8.81;71.46;101392.19;5004521;28;45727;-72
2022/12/19 08:45:58;;;;;;;;;13.33;10.67;;;;;8.04;71.08;101261.09;5004147;28;45468;-70
2022/12/19 08:48:24;;;;;;;;;13.00;10.33;;;;;8.87;71.49;101406.75;5004406;28;45506;-70
2022/12/19 08:50:55;;;;;;;;;12.00;10.00;;;;;8.89;70.99;101395.06;5009142;28;45235;-71
2022/12/19 08:53:22;;;;;;;;;10.00;8.33;;;;;8.14;71.14;101280.63;5006781;28;45645;-72
2022/12/19 08:55:54;;;;;;;;;9.00;8.00;;;;;8.88;70.83;101387.25;5003961;28;45716;-72
2022/12/19 08:58:19;;;;;;;;;7.67;7.67;;;;;9.00;70.82;101399.53;5015612;28;45516;-70
2022/12/19 09:00:45;;;;;;;;;11.67;10.33;;;;;8.12;70.49;101248.97;4985207;28;45327;-71
2022/12/19 09:03:10;;;;;;;;;13.67;10.00;;;;;8.92;70.09;101383.38;5004469;28;45611;-72
2022/12/19 09:05:35;;;;;;;;;9.33;9.00;;;;;8.99;70.48;101371.34;5005623;28;45739;-72
2022/12/19 09:08:01;;;;;;;;;12.00;11.00;;;;;8.85;69.85;101351.19;5007897;28;45595;-70
2022/12/19 09:10:26;;;;;;;;;10.33;10.00;;;;;9.02;70.17;101368.47;5007637;28;45330;-72
2022/12/19 09:12:51;;;;;;;;;14.00;12.67;;;;;9.00;70.04;101365.06;4981418;28;49120;-72
2022/12/19 09:15:17;;;;;;;;;11.00;10.00;;;;;9.20;69.76;101409.47;5013932;28;45574;-71
2022/12/19 09:17:42;;;;;;;;;11.67;10.00;;;;;8.38;69.79;101262.06;5016711;28;45514;-70
2022/12/19 09:20:09;;;;;;;;;11.33;11.33;;;;;9.10;70.00;101379.31;5004842;28;45540;-72
2022/12/19 09:22:34;;;;;;;;;8.67;8.67;;;;;8.77;69.71;101327.91;5002061;28;46014;-73
2022/12/19 09:25:00;;;;;;;;;11.33;10.67;;;;;9.13;69.25;101379.06;5006912;28;45234;-75
2022/12/19 09:27:25;;;;;;;;;10.33;10.33;;;;;9.35;69.62;101405.63;5004939;28;45460;-76
2022/12/19 09:29:51;;;;;;;;;12.33;11.00;;;;;8.61;69.42;101286.78;5008285;28;45486;-72
2022/12/19 09:32:16;;;;;;;;;14.33;12.33;;;;;9.00;69.49;101338.53;4989175;28;47205;-73
2022/12/19 09:34:42;;;;;;;;;9.33;9.00;;;;;9.19;69.27;101372.44;4998836;28;45414;-75
2022/12/19 09:37:10;;;;;;;;;10.67;10.67;;;;;7.62;68.75;101118.63;5003721;28;45408;-72
2022/12/19 09:39:35;;;;;;;;;11.67;11.67;;;;;9.26;69.01;101385.13;4993628;28;45631;-74
2022/12/19 09:42:28;;;;;;;;;13.33;11.67;;;;;9.54;68.69;101418.28;4988936;28;46295;-73
2022/12/19 09:45:21;;;;;;;;;14.00;13.00;;;;;9.58;68.45;101434.81;4999372;28;45356;-73
2022/12/19 09:47:47;;;;;;;;;12.00;12.00;;;;;9.50;68.85;101416.84;5014790;28;45222;-73
2022/12/19 09:50:53;;;;;;;;;10.00;9.67;;;;;9.62;68.38;101429.16;4990558;28;45619;-74
2022/12/19 09:53:37;;;;;;;;;13.67;12.33;;;;;8.87;68.00;101309.50;4995197;28;46348;-73
2022/12/19 09:56:09;;;;;;;;;16.00;14.00;;;;;9.74;68.34;101456.53;5007165;28;45529;-75
2022/12/19 09:58:54;;;;;;;;;12.67;11.00;;;;;9.59;68.03;101405.50;4996011;28;45311;-73
2022/12/19 10:01:27;;;;;;;;;16.00;13.33;;;;;9.74;67.44;101436.16;5008064;28;45308;-74
2022/12/19 10:04:01;;;;;;;;;14.00;12.33;;;;;9.36;67.83;101383.41;4980573;28;47511;-75
2022/12/19 10:06:28;;;;;;;;;14.33;13.33;;;;;8.71;67.72;101270.06;5006896;28;45488;-73
2022/12/19 10:08:53;;;;;;;;;11.00;11.00;;;;;9.67;67.75;101428.81;5005836;28;45508;-72
2022/12/19 10:11:48;;;;;;;;;15.33;12.00;;;;;9.31;68.00;101372.34;5002197;28;45476;-73
2022/12/19 10:14:40;;;;;;;;;16.00;13.33;;;;;9.63;67.28;101416.75;4981554;28;45468;-74
2022/12/19 10:17:30;;;;;;;;;18.00;13.33;;;;;8.74;67.58;101272.47;4996517;28;45471;-71
2022/12/19 10:20:14;;;;;;;;;14.67;11.33;;;;;9.55;68.03;101397.91;5009260;28;45535;-74
2022/12/19 10:22:54;;;;;;;;;11.00;11.00;;;;;9.65;67.77;101425.44;5006243;28;45460;-71
2022/12/19 10:25:42;;;;;;;;;14.33;11.67;;;;;9.22;67.78;101351.84;5006042;28;45692;-74
2022/12/19 10:28:29;;;;;;;;;10.00;10.00;;;;;9.54;67.47;101383.78;5013384;28;45374;-71
2022/12/19 10:31:23;;;;;;;;;12.33;12.33;;;;;9.70;67.78;101413.47;5011613;28;45535;-74
2022/12/19 10:34:12;;;;;;;;;14.67;14.67;;;;;9.70;67.03;101404.66;4968031;28;45523;-75
2022/12/19 10:36:43;;;;;;;;;9.67;9.33;;;;;9.54;67.30;101370.50;4974837;28;45833;-72
2022/12/19 10:39:22;;;;;;;;;17.67;15.00;;;;;9.80;66.67;101416.22;5004357;28;45555;-74
2022/12/19 10:41:54;;;;;;;;;11.00;11.00;;;;;8.39;66.97;101178.97;4998441;28;45424;-72
2022/12/19 10:44:21;;;;;;;;;15.33;12.67;;;;;9.85;67.03;101406.09;5007822;28;45211;-74
2022/12/19 10:46:48;;;;;;;;;13.00;12.00;;;;;9.44;66.84;101332.41;5005230;28;45793;-72
2022/12/19 10:49:18;;;;;;;;;12.00;12.00;;;;;9.96;66.71;101398.09;5005876;28;45399;-77
2022/12/19 10:52:00;;;;;;;;;11.00;11.00;;;;;10.01;66.82;101411.00;4992034;28;45478;-73
2022/12/19 10:54:38;;;;;;;;;10.00;10.00;;;;;10.04;66.30;101402.81;5010300;28;45535;-71
2022/12/19 10:57:29;;;;;;;;;9.00;9.00;;;;;10.02;66.68;101402.94;5004379;28;45748;-74
2022/12/19 10:59:56;;;;;;;;;10.67;9.00;;;;;9.87;66.21;101372.28;5005292;28;45539;-73
2022/12/19 11:02:50;;;;;;;;;12.00;12.00;;;;;10.10;66.56;101404.09;5009267;28;45396;-75
2022/12/19 11:05:26;;;;;;;;;11.67;11.33;;;;;10.03;66.40;101385.19;4994854;28;45396;-74
2022/12/19 11:08:03;;;;;;;;;17.00;13.67;;;;;10.15;65.84;101391.28;4997948;28;46149;-72
2022/12/19 11:10:55;;;;;;;;;11.67;11.33;;;;;10.18;66.33;101394.53;5005638;28;45539;-74
2022/12/19 11:13:39;;;;;;;;;12.33;11.33;;;;;9.91;66.14;101352.47;5001651;28;45549;-74
2022/12/19 11:16:06;;;;;;;;;13.00;13.00;;;;;9.51;65.88;101279.66;4996361;28;45346;-73
2022/12/19 11:18:38;;;;;;;;;13.00;12.33;;;;;9.50;65.96;101275.34;5013173;28;46747;-75
2022/12/19 11:21:17;;;;;;;;;11.67;11.67;;;;;9.25;65.78;101220.75;4995794;28;45623;-74
2022/12/19 11:24:00;;;;;;;;;14.00;12.33;;;;;10.22;65.88;101376.56;5013762;28;45448;-73
2022/12/19 11:26:47;;;;;;;;;15.33;13.00;;;;;10.20;66.27;101370.47;5012535;28;45507;-72
2022/12/19 11:29:20;;;;;;;;;16.00;13.00;;;;;10.24;65.77;101369.31;5007408;28;47416;-73
2022/12/19 11:31:48;;;;;;;;;10.67;8.67;;;;;10.23;65.74;101383.56;5008549;28;45491;-72
2022/12/19 11:34:18;;;;;;;;;26.33;25.00;;;;;10.24;66.21;101386.09;5012042;28;45542;-73